createdAt,value
2019-02-05T00:00:37.143Z,22.97
2019-02-05T00:03:11.145Z,23.03
2019-02-05T00:05:39.976Z,20.90
2019-02-05T00:08:08.666Z,19.53
2019-02-05T00:10:37.405Z,17.83
2019-02-05T00:13:06.097Z,19.57
2019-02-05T00:15:35.095Z,21.33
2019-02-05T00:18:03.953Z,22.50
2019-02-05T00:20:32.753Z,19.93
2019-02-05T00:23:01.405Z,20.70
2019-02-05T00:25:30.134Z,20.60
2019-02-05T00:27:58.848Z,20.70
2019-02-05T00:30:27.875Z,20.23
2019-02-05T00:32:56.594Z,22.63
2019-02-05T00:35:25.140Z,22.60
2019-02-05T00:37:53.764Z,21.53
2019-02-05T00:40:22.543Z,22.27
2019-02-05T00:42:51.185Z,21.03
2019-02-05T00:45:20.404Z,22.93
2019-02-05T00:47:49.296Z,18.23
2019-02-05T00:50:19.324Z,20.03
2019-02-05T00:52:47.939Z,24.70
2019-02-05T00:55:18.038Z,24.17
2019-02-05T00:57:47.243Z,23.90
2019-02-05T01:00:31.084Z,23.10
2019-02-05T01:03:00.121Z,21.23
2019-02-05T01:05:28.794Z,20.33
2019-02-05T01:07:57.515Z,19.47
2019-02-05T01:10:26.981Z,24.00
2019-02-05T01:12:56.472Z,24.80
2019-02-05T01:15:26.195Z,20.07
2019-02-05T01:17:55.017Z,25.07
2019-02-05T01:20:23.929Z,23.40
2019-02-05T01:22:52.823Z,21.83
2019-02-05T01:25:22.145Z,20.77
2019-02-05T01:27:51.437Z,25.37
2019-02-05T01:30:25.691Z,23.47
2019-02-05T01:32:54.692Z,23.10
2019-02-05T01:35:23.578Z,23.03
2019-02-05T01:37:52.520Z,23.23
2019-02-05T01:40:26.104Z,24.17
2019-02-05T01:42:56.132Z,23.60
2019-02-05T01:45:25.496Z,18.87
2019-02-05T01:47:54.452Z,20.47
2019-02-05T01:50:25.686Z,27.00
2019-02-05T01:52:54.692Z,22.00
2019-02-05T01:55:23.590Z,26.30
2019-02-05T01:57:52.368Z,22.37
2019-02-05T02:00:31.884Z,24.40
2019-02-05T02:03:00.504Z,25.33
2019-02-05T02:05:29.519Z,22.80
2019-02-05T02:07:58.522Z,20.37
2019-02-05T02:10:29.440Z,20.67
2019-02-05T02:12:58.748Z,23.00
2019-02-05T02:15:27.730Z,20.70
2019-02-05T02:17:56.451Z,25.87
2019-02-05T02:20:25.448Z,26.37
2019-02-05T02:22:54.572Z,22.20
2019-02-05T02:25:23.264Z,21.47
2019-02-05T02:27:51.956Z,26.30
2019-02-05T02:30:29.521Z,25.60
2019-02-05T02:32:58.141Z,25.50
2019-02-05T02:35:26.860Z,26.60
2019-02-05T02:37:55.780Z,23.43
2019-02-05T02:40:24.509Z,28.33
2019-02-05T02:42:53.059Z,25.47
2019-02-05T02:45:21.779Z,27.73
2019-02-05T02:47:50.683Z,25.77
2019-02-05T02:50:21.663Z,22.37
2019-02-05T02:52:51.003Z,23.63
2019-02-05T02:55:19.917Z,21.67
2019-02-05T02:57:48.658Z,26.87
2019-02-05T03:00:20.042Z,25.93
2019-02-05T03:02:49.168Z,25.30
2019-02-05T03:05:20.247Z,24.17
2019-02-05T03:07:49.256Z,25.67
2019-02-05T03:10:23.558Z,25.73
2019-02-05T03:12:52.572Z,26.73
2019-02-05T03:15:21.320Z,25.93
2019-02-05T03:17:50.227Z,27.30
2019-02-05T03:20:18.968Z,28.83
2019-02-05T03:22:47.707Z,25.33
2019-02-05T03:25:22.420Z,28.10
2019-02-05T03:27:53.738Z,27.23
2019-02-05T03:30:23.093Z,25.37
2019-02-05T03:32:52.440Z,27.57
2019-02-05T03:35:21.547Z,28.70
2019-02-05T03:37:50.578Z,26.73
2019-02-05T03:40:31.373Z,28.50
2019-02-05T03:43:00.104Z,28.67
2019-02-05T03:45:31.312Z,27.07
2019-02-05T03:48:01.923Z,27.50
2019-02-05T03:50:33.307Z,27.07
2019-02-05T03:53:26.365Z,29.70
2019-02-05T03:56:18.894Z,27.10
2019-02-05T03:59:03.527Z,25.77
2019-02-05T04:01:43.947Z,26.07
2019-02-05T04:04:33.490Z,23.77
2019-02-05T04:07:25.934Z,24.00
2019-02-05T04:10:09.492Z,28.43
2019-02-05T04:12:53.628Z,27.37
2019-02-05T04:15:46.539Z,27.73
2019-02-05T04:18:23.992Z,31.23
2019-02-05T04:21:10.873Z,25.70
2019-02-05T04:23:57.313Z,31.07
2019-02-05T04:26:45.578Z,26.33
2019-02-05T04:29:17.226Z,35.63
2019-02-05T04:32:19.391Z,36.53
2019-02-05T04:34:56.846Z,42.80
2019-02-05T04:37:42.886Z,38.60
2019-02-05T04:40:14.827Z,35.37
2019-02-05T04:42:49.601Z,30.97
2019-02-05T04:45:34.199Z,31.63
2019-02-05T04:48:25.948Z,31.33
2019-02-05T04:51:17.406Z,27.63
2019-02-05T04:53:54.791Z,26.90
2019-02-05T04:56:56.606Z,31.03
2019-02-05T04:59:57.570Z,32.07
2019-02-05T05:02:38.139Z,33.00
2019-02-05T05:05:21.553Z,30.40
2019-02-05T05:07:56.007Z,31.60
2019-02-05T05:10:24.951Z,37.90
2019-02-05T05:12:53.660Z,35.10
2019-02-05T05:15:22.379Z,33.57
2019-02-05T05:17:51.069Z,40.07
2019-02-05T05:20:19.775Z,33.40
2019-02-05T05:22:48.816Z,35.90
2019-02-05T05:25:19.695Z,31.10
2019-02-05T05:27:48.667Z,32.13
2019-02-05T05:30:17.887Z,24.10
2019-02-05T05:32:46.623Z,27.93
2019-02-05T05:35:15.427Z,29.03
2019-02-05T05:37:44.075Z,31.23
2019-02-05T05:40:12.810Z,32.97
2019-02-05T05:42:41.523Z,30.43
2019-02-05T05:45:12.773Z,29.53
2019-02-05T05:47:41.404Z,31.03
2019-02-05T05:50:13.018Z,34.17
2019-02-05T05:52:41.725Z,30.10
2019-02-05T05:55:10.757Z,37.43
2019-02-05T05:57:39.475Z,40.27
2019-02-05T06:00:17.213Z,33.07
2019-02-05T06:02:45.788Z,34.27
2019-02-05T06:05:16.220Z,35.13
2019-02-05T06:07:44.960Z,31.47
2019-02-05T06:10:16.691Z,35.57
2019-02-05T06:12:45.359Z,33.90
2019-02-05T06:15:15.271Z,28.97
2019-02-05T06:17:44.019Z,32.57
2019-02-05T06:20:19.255Z,34.33
2019-02-05T06:22:48.403Z,32.07
2019-02-05T06:25:17.122Z,29.57
2019-02-05T06:27:45.832Z,31.77
2019-02-05T06:30:16.588Z,32.57
2019-02-05T06:32:45.290Z,32.03
2019-02-05T06:35:14.252Z,34.47
2019-02-05T06:37:43.265Z,35.43
2019-02-05T06:40:15.368Z,30.87
2019-02-05T06:42:44.076Z,34.27
2019-02-05T06:45:14.916Z,34.27
2019-02-05T06:47:43.831Z,34.17
2019-02-05T06:50:14.374Z,34.23
2019-02-05T06:52:43.083Z,32.30
2019-02-05T06:55:13.899Z,36.60
2019-02-05T06:57:42.599Z,38.13
2019-02-05T07:00:22.734Z,40.73
2019-02-05T07:02:53.045Z,34.10
2019-02-05T07:05:21.828Z,35.23
2019-02-05T07:07:50.980Z,33.43
2019-02-05T07:10:22.657Z,32.80
2019-02-05T07:12:51.294Z,34.30
2019-02-05T07:15:20.038Z,38.43
2019-02-05T07:17:50.110Z,37.63
2019-02-05T07:20:19.785Z,40.37
2019-02-05T07:22:48.503Z,40.10
2019-02-05T07:25:21.806Z,38.73
2019-02-05T07:27:50.526Z,38.37
2019-02-05T07:30:21.761Z,34.07
2019-02-05T07:32:50.471Z,37.67
2019-02-05T07:35:19.287Z,33.37
2019-02-05T07:37:48.027Z,40.53
2019-02-05T07:40:19.944Z,40.80
2019-02-05T07:42:48.887Z,39.83
2019-02-05T07:45:22.632Z,34.80
2019-02-05T07:47:51.381Z,39.83
2019-02-05T07:50:26.440Z,30.87
2019-02-05T07:52:55.646Z,36.53
2019-02-05T07:55:24.857Z,38.53
2019-02-05T07:57:53.595Z,35.23
2019-02-05T08:00:27.506Z,31.77
2019-02-05T08:03:16.927Z,35.43
2019-02-05T08:05:45.602Z,32.10
2019-02-05T08:08:17.063Z,35.43
2019-02-05T08:10:45.807Z,35.67
2019-02-05T08:13:14.516Z,35.87
2019-02-05T08:15:43.199Z,34.53
2019-02-05T08:18:11.942Z,34.37
2019-02-05T08:20:40.774Z,35.90
2019-02-05T08:23:09.483Z,31.70
2019-02-05T08:25:38.134Z,31.20
2019-02-05T08:28:06.880Z,39.67
2019-02-05T08:30:44.213Z,30.53
2019-02-05T08:33:13.412Z,27.87
2019-02-05T08:35:42.103Z,29.90
2019-02-05T08:38:11.113Z,33.43
2019-02-05T08:40:39.944Z,35.90
2019-02-05T08:43:08.679Z,29.07
2019-02-05T08:45:39.032Z,26.87
2019-02-05T08:48:10.243Z,24.90
2019-02-05T08:50:39.047Z,26.80
2019-02-05T08:53:07.791Z,25.60
2019-02-05T08:55:36.499Z,23.67
2019-02-05T08:58:11.063Z,23.70
2019-02-05T09:00:41.575Z,21.40
2019-02-05T09:03:11.715Z,25.07
2019-02-05T09:05:40.619Z,26.30
2019-02-05T09:08:09.412Z,23.77
2019-02-05T09:10:40.262Z,23.00
2019-02-05T09:13:09.376Z,25.57
2019-02-05T09:15:38.126Z,25.77
2019-02-05T09:18:07.337Z,26.07
2019-02-05T09:20:36.077Z,22.90
2019-02-05T09:23:05.186Z,20.93
2019-02-05T09:25:33.892Z,19.70
2019-02-05T09:28:02.574Z,21.70
2019-02-05T09:30:36.055Z,24.60
2019-02-05T09:33:08.304Z,25.70
2019-02-05T09:35:37.009Z,18.77
2019-02-05T09:38:05.988Z,21.53
2019-02-05T09:40:34.771Z,21.20
2019-02-05T09:43:03.620Z,20.37
2019-02-05T09:45:32.600Z,20.43
2019-02-05T09:48:02.420Z,21.60
2019-02-05T09:50:43.695Z,22.80
2019-02-05T09:53:01.826Z,22.13
2019-02-05T09:55:30.571Z,20.63
2019-02-05T09:57:59.280Z,20.80
2019-02-05T10:00:32.992Z,21.30
2019-02-05T10:03:01.736Z,20.03
2019-02-05T10:05:32.883Z,25.67
2019-02-05T10:08:01.629Z,23.77
2019-02-05T10:10:30.339Z,24.07
2019-02-05T10:12:59.087Z,21.83
2019-02-05T10:15:36.513Z,23.30
2019-02-05T10:18:07.135Z,21.87
2019-02-05T10:20:35.920Z,20.53
2019-02-05T10:23:05.432Z,22.57
2019-02-05T10:25:34.172Z,19.10
2019-02-05T10:28:02.880Z,22.47
2019-02-05T10:30:36.391Z,19.97
2019-02-05T10:33:06.313Z,20.67
2019-02-05T10:35:35.067Z,21.03
2019-02-05T10:38:04.170Z,20.03
2019-02-05T10:40:32.995Z,26.17
2019-02-05T10:43:01.699Z,23.63
2019-02-05T10:45:30.587Z,18.37
2019-02-05T10:47:59.323Z,21.73
2019-02-05T10:50:28.042Z,21.37
2019-02-05T10:52:56.783Z,24.00
2019-02-05T10:55:25.499Z,19.90
2019-02-05T10:57:55.707Z,19.27
2019-02-05T11:00:29.822Z,19.23
2019-02-05T11:03:00.731Z,22.10
2019-02-05T11:05:30.879Z,21.83
2019-02-05T11:07:59.591Z,22.63
2019-02-05T11:10:28.490Z,19.87
2019-02-05T11:12:57.347Z,18.63
2019-02-05T11:15:32.878Z,19.60
2019-02-05T11:18:02.806Z,17.60
2019-02-05T11:20:31.732Z,20.57
2019-02-05T11:23:00.631Z,18.43
2019-02-05T11:25:29.375Z,19.37
2019-02-05T11:27:58.084Z,19.20
2019-02-05T11:30:32.930Z,17.50
2019-02-05T11:33:01.640Z,22.40
2019-02-05T11:35:30.780Z,19.13
2019-02-05T11:37:59.499Z,17.80
2019-02-05T11:40:30.936Z,15.63
2019-02-05T11:42:59.635Z,18.63
2019-02-05T11:45:28.942Z,16.57
2019-02-05T11:48:00.092Z,17.70
2019-02-05T11:50:28.839Z,19.30
2019-02-05T11:52:58.588Z,18.00
2019-02-05T11:55:34.850Z,15.87
2019-02-05T11:58:04.240Z,18.60
2019-02-05T12:00:40.303Z,17.80
2019-02-05T12:03:10.161Z,17.30
2019-02-05T12:05:39.072Z,19.60
2019-02-05T12:08:08.182Z,15.13
2019-02-05T12:10:36.927Z,18.73
2019-02-05T12:13:05.643Z,18.27
2019-02-05T12:15:34.422Z,15.90
2019-02-05T12:18:03.137Z,18.03
2019-02-05T12:20:31.784Z,17.90
2019-02-05T12:23:01.045Z,17.33
2019-02-05T12:25:29.747Z,18.43
2019-02-05T12:27:58.501Z,25.00
2019-02-05T12:30:29.983Z,21.57
2019-02-05T12:33:01.685Z,17.67
2019-02-05T12:35:29.177Z,20.07
2019-02-05T12:37:57.961Z,18.23
2019-02-05T12:40:26.738Z,19.83
2019-02-05T12:42:55.843Z,18.33
2019-02-05T12:45:32.336Z,18.77
2019-02-05T12:48:01.041Z,16.53
2019-02-05T12:50:32.559Z,19.63
2019-02-05T12:53:02.094Z,15.53
2019-02-05T12:55:30.997Z,19.90
2019-02-05T12:57:59.742Z,15.93
2019-02-05T13:00:34.203Z,17.20
2019-02-05T13:03:02.949Z,18.13
2019-02-05T13:05:31.850Z,17.03
2019-02-05T13:08:00.859Z,15.87
2019-02-05T13:10:32.476Z,16.43
2019-02-05T13:13:01.482Z,16.10
2019-02-05T13:15:30.227Z,18.23
2019-02-05T13:17:58.933Z,17.17
2019-02-05T13:20:30.350Z,17.00
2019-02-05T13:22:59.862Z,17.33
2019-02-05T13:25:30.771Z,17.10
2019-02-05T13:28:00.182Z,18.80
2019-02-05T13:30:34.283Z,16.90
2019-02-05T13:33:03.036Z,16.77
2019-02-05T13:35:32.141Z,18.53
2019-02-05T13:38:00.888Z,18.30
2019-02-05T13:40:30.195Z,18.60
2019-02-05T13:43:00.852Z,17.23
2019-02-05T13:45:32.269Z,16.13
2019-02-05T13:48:01.083Z,16.17
2019-02-05T13:50:33.434Z,18.40
2019-02-05T13:53:01.981Z,16.70
2019-02-05T13:55:36.295Z,17.90
2019-02-05T13:58:05.609Z,18.53
2019-02-05T14:00:40.011Z,18.97
2019-02-05T14:03:09.921Z,17.33
2019-02-05T14:05:39.037Z,16.43
2019-02-05T14:08:07.778Z,16.70
2019-02-05T14:10:38.942Z,18.50
2019-02-05T14:13:07.871Z,15.03
2019-02-05T14:15:41.941Z,15.43
2019-02-05T14:18:11.342Z,15.53
2019-02-05T14:20:40.034Z,15.73
2019-02-05T14:23:08.735Z,14.50
2019-02-05T14:25:37.471Z,15.63
2019-02-05T14:28:06.275Z,18.27
2019-02-05T14:30:43.519Z,13.17
2019-02-05T14:33:12.221Z,16.53
2019-02-05T14:35:40.962Z,17.73
2019-02-05T14:38:09.859Z,12.80
2019-02-05T14:40:38.569Z,14.80
2019-02-05T14:43:07.635Z,15.97
2019-02-05T14:45:36.744Z,13.40
2019-02-05T14:48:06.373Z,16.87
2019-02-05T14:50:40.076Z,13.50
2019-02-05T14:53:09.805Z,13.63
2019-02-05T14:55:38.619Z,13.57
2019-02-05T14:58:09.313Z,10.60
2019-02-05T15:00:38.443Z,13.93
2019-02-05T15:03:12.962Z,15.73
2019-02-05T15:05:42.219Z,16.80
2019-02-05T15:08:11.828Z,15.47
2019-02-05T15:10:40.564Z,14.43
2019-02-05T15:13:10.734Z,15.40
2019-02-05T15:15:39.438Z,15.17
2019-02-05T15:18:09.470Z,13.83
2019-02-05T15:20:40.947Z,15.37
2019-02-05T15:23:10.277Z,17.73
2019-02-05T15:25:38.987Z,16.33
2019-02-05T15:28:08.135Z,16.70
2019-02-05T15:30:39.415Z,21.73
2019-02-05T15:33:28.763Z,15.43
2019-02-05T15:36:04.735Z,24.13
2019-02-05T15:38:33.491Z,16.70
2019-02-05T15:41:02.194Z,22.57
2019-02-05T15:43:30.831Z,19.33
2019-02-05T15:45:59.571Z,20.57
2019-02-05T15:48:28.211Z,16.13
2019-02-05T15:50:56.958Z,17.67
2019-02-05T15:53:25.995Z,18.73
2019-02-05T15:55:54.752Z,17.07
2019-02-05T15:58:23.459Z,16.07
2019-02-05T16:00:52.162Z,16.53
2019-02-05T16:03:20.895Z,18.23
2019-02-05T16:05:49.537Z,15.83
2019-02-05T16:08:18.612Z,16.23
2019-02-05T16:10:47.325Z,23.30
2019-02-05T16:13:16.083Z,20.00
2019-02-05T16:15:44.750Z,18.13
2019-02-05T16:18:13.459Z,18.57
2019-02-05T16:20:42.131Z,16.10
2019-02-05T16:23:10.830Z,16.10
2019-02-05T16:25:42.714Z,20.47
2019-02-05T16:28:11.462Z,18.73
2019-02-05T16:30:40.240Z,18.73
2019-02-05T16:33:08.978Z,19.43
2019-02-05T16:35:37.687Z,20.67
2019-02-05T16:38:06.491Z,21.60
2019-02-05T16:40:37.830Z,17.03
2019-02-05T16:43:06.738Z,26.43
2019-02-05T16:45:35.700Z,23.70
2019-02-05T16:48:04.603Z,33.57
2019-02-05T16:50:42.519Z,28.67
2019-02-05T16:53:11.636Z,24.57
2019-02-05T16:55:40.341Z,27.23
2019-02-05T16:58:09.278Z,28.97
2019-02-05T17:00:39.189Z,30.07
2019-02-05T17:03:08.126Z,23.23
2019-02-05T17:05:39.529Z,20.57
2019-02-05T17:08:08.654Z,21.33
2019-02-05T17:10:37.354Z,17.73
2019-02-05T17:13:06.059Z,18.17
2019-02-05T17:15:34.799Z,18.70
2019-02-05T17:18:03.506Z,19.00
2019-02-05T17:20:33.304Z,19.33
2019-02-05T17:23:02.007Z,16.67
2019-02-05T17:25:30.656Z,17.00
2019-02-05T17:28:01.190Z,19.10
2019-02-05T17:30:35.195Z,22.37
2019-02-05T17:33:04.238Z,23.43
2019-02-05T17:35:35.389Z,24.27
2019-02-05T17:38:04.172Z,24.60
2019-02-05T17:40:32.864Z,23.67
2019-02-05T17:43:01.600Z,23.93
2019-02-05T17:45:35.903Z,19.73
2019-02-05T17:48:07.477Z,21.80
2019-02-05T17:50:36.206Z,22.67
2019-02-05T17:53:04.911Z,35.47
2019-02-05T17:55:33.947Z,31.27
2019-02-05T17:58:02.587Z,30.87
2019-02-05T18:00:52.029Z,30.20
2019-02-05T18:03:21.036Z,26.13
2019-02-05T18:05:49.739Z,30.03
2019-02-05T18:08:18.475Z,29.17
2019-02-05T18:10:47.199Z,28.07
2019-02-05T18:13:15.953Z,26.17
2019-02-05T18:15:44.859Z,21.97
2019-02-05T18:18:13.563Z,23.77
2019-02-05T18:20:42.304Z,23.23
2019-02-05T18:23:11.030Z,24.67
2019-02-05T18:25:39.927Z,25.23
2019-02-05T18:28:08.634Z,21.47
2019-02-05T18:30:40.436Z,23.67
2019-02-05T18:33:09.166Z,20.23
2019-02-05T18:35:37.875Z,25.40
2019-02-05T18:38:12.834Z,22.97
2019-02-05T18:40:41.738Z,22.03
2019-02-05T18:43:10.447Z,25.00
2019-02-05T18:45:39.191Z,29.03
2019-02-05T18:48:08.404Z,27.30
2019-02-05T18:50:37.140Z,22.63
2019-02-05T18:53:05.852Z,26.40
2019-02-05T18:55:37.462Z,33.90
2019-02-05T18:58:09.568Z,27.53
2019-02-05T19:00:39.720Z,31.23
2019-02-05T19:03:15.499Z,32.70
2019-02-05T19:05:39.319Z,31.03
2019-02-05T19:08:08.435Z,27.43
2019-02-05T19:10:37.173Z,23.20
2019-02-05T19:13:06.220Z,20.27
2019-02-05T19:15:41.440Z,24.40
2019-02-05T19:18:11.152Z,19.70
2019-02-05T19:20:39.889Z,28.57
2019-02-05T19:23:10.012Z,26.57
2019-02-05T19:25:46.364Z,26.47
2019-02-05T19:28:22.648Z,24.13
2019-02-05T19:30:52.985Z,22.37
2019-02-05T19:33:27.067Z,28.90
2019-02-05T19:35:52.035Z,29.67
2019-02-05T19:38:20.670Z,27.77
2019-02-05T19:40:57.079Z,29.23
2019-02-05T19:43:19.698Z,28.33
2019-02-05T19:46:08.127Z,22.57
2019-02-05T19:48:39.467Z,25.80
2019-02-05T19:51:08.207Z,25.77
2019-02-05T19:53:36.852Z,25.13
2019-02-05T19:56:06.010Z,22.73
2019-02-05T19:58:35.042Z,25.67
2019-02-05T20:01:04.056Z,23.63
2019-02-05T20:03:38.936Z,29.70
2019-02-05T20:06:02.937Z,26.33
2019-02-05T20:08:31.681Z,25.40
2019-02-05T20:11:00.384Z,26.57
2019-02-05T20:13:39.620Z,27.17
2019-02-05T20:16:01.683Z,26.57
2019-02-05T20:18:30.387Z,29.00
2019-02-05T20:20:59.135Z,24.27
2019-02-05T20:23:27.776Z,24.57
2019-02-05T20:25:56.516Z,22.97
2019-02-05T20:28:25.223Z,24.97
2019-02-05T20:30:54.235Z,28.07
2019-02-05T20:33:22.911Z,24.90
2019-02-05T20:35:51.560Z,28.00
2019-02-05T20:38:20.310Z,24.30
2019-02-05T20:40:49.085Z,29.63
2019-02-05T20:43:17.840Z,26.23
2019-02-05T20:45:46.543Z,29.47
2019-02-05T20:48:15.478Z,29.33
2019-02-05T20:50:44.072Z,27.53
2019-02-05T20:53:14.268Z,30.83
2019-02-05T20:55:43.271Z,24.20
2019-02-05T20:58:11.995Z,27.40
2019-02-05T21:00:40.741Z,31.10
2019-02-05T21:03:09.447Z,24.57
2019-02-05T21:05:38.606Z,27.30
2019-02-05T21:08:07.339Z,27.30
2019-02-05T21:10:35.991Z,25.47
2019-02-05T21:13:04.804Z,22.20
2019-02-05T21:15:33.509Z,26.37
2019-02-05T21:18:02.351Z,27.90
2019-02-05T21:20:33.825Z,25.37
2019-02-05T21:23:03.207Z,25.13
2019-02-05T21:25:31.922Z,23.57
2019-02-05T21:28:00.557Z,29.77
2019-02-05T21:30:29.714Z,28.97
2019-02-05T21:32:58.437Z,32.30
2019-02-05T21:35:27.282Z,26.77
2019-02-05T21:37:56.283Z,23.60
2019-02-05T21:40:26.540Z,31.37
2019-02-05T21:42:55.249Z,23.67
2019-02-05T21:45:29.199Z,26.07
2019-02-05T21:47:57.919Z,23.97
2019-02-05T21:50:26.637Z,28.77
2019-02-05T21:52:55.483Z,28.23
2019-02-05T21:55:25.594Z,25.97
2019-02-05T21:57:54.346Z,25.10
2019-02-05T22:00:36.294Z,30.50
2019-02-05T22:03:06.635Z,32.23
2019-02-05T22:05:35.386Z,28.67
2019-02-05T22:08:05.072Z,27.97
2019-02-05T22:10:33.831Z,29.33
2019-02-05T22:13:02.535Z,34.57
2019-02-05T22:15:31.747Z,29.97
2019-02-05T22:18:00.397Z,31.83
2019-02-05T22:20:29.930Z,29.40
2019-02-05T22:22:58.654Z,37.27
2019-02-05T22:25:32.484Z,35.73
2019-02-05T22:28:01.261Z,38.70
2019-02-05T22:30:39.647Z,37.50
2019-02-05T22:33:08.702Z,37.90
2019-02-05T22:35:37.415Z,35.87
2019-02-05T22:38:06.335Z,29.40
2019-02-05T22:40:35.015Z,31.10
2019-02-05T22:43:04.601Z,33.07
2019-02-05T22:45:33.787Z,31.57
2019-02-05T22:48:02.438Z,30.70
2019-02-05T22:50:35.914Z,30.30
2019-02-05T22:53:09.813Z,35.43
2019-02-05T22:55:38.751Z,30.70
2019-02-05T22:58:08.660Z,28.23
2019-02-05T23:00:50.739Z,34.97
2019-02-05T23:03:22.717Z,28.67
2019-02-05T23:06:09.158Z,31.03
2019-02-05T23:08:37.803Z,30.87
2019-02-05T23:11:15.620Z,28.07
2019-02-05T23:13:44.335Z,29.07
2019-02-05T23:16:13.113Z,29.13
2019-02-05T23:18:41.875Z,31.70
2019-02-05T23:21:10.663Z,27.37
2019-02-05T23:23:39.331Z,31.10
2019-02-05T23:26:08.043Z,32.87
2019-02-05T23:28:37.263Z,33.53
2019-02-05T23:31:06.178Z,32.73
2019-02-05T23:33:34.900Z,27.07
2019-02-05T23:36:03.831Z,26.03
2019-02-05T23:38:32.470Z,29.10
2019-02-05T23:41:01.381Z,29.37
2019-02-05T23:43:30.338Z,31.67
2019-02-05T23:46:01.636Z,23.73
2019-02-05T23:48:29.377Z,30.40
2019-02-05T23:50:58.087Z,29.23
2019-02-05T23:53:26.863Z,28.73
2019-02-05T23:55:55.507Z,26.67
2019-02-05T23:58:24.222Z,29.37
